Time;durP1;ratioP1;P1;durP2;ratioP2;P2;SDS_P1;SDS_P2;PMS_P1;PMS_P2;Temp;Humidity;BMP_temperature;BMP_pressure;BME280_temperature;BME280_humidity;BME280_pressure;Samples;Min_cycle;Max_cycle;Signal;HPM_P1;HPM_P2
2023/09/07 00:01:20;;;;;;;6.85;3.70;;;20.40;99.90;;;;;;4984495;28;20082;-48
2023/09/07 00:03:45;;;;;;;7.25;3.83;;;20.30;99.90;;;;;;4983379;28;20479;-49
2023/09/07 00:06:11;;;;;;;7.03;4.13;;;20.30;99.90;;;;;;4982092;28;20081;-52
2023/09/07 00:08:37;;;;;;;5.45;3.50;;;20.30;99.90;;;;;;4964044;28;20061;-49
2023/09/07 00:11:04;;;;;;;8.05;3.80;;;20.20;99.90;;;;;;4964362;28;20043;-48
2023/09/07 00:13:31;;;;;;;4.50;3.40;;;20.20;99.90;;;;;;4964337;28;20109;-50
2023/09/07 00:16:00;;;;;;;6.75;3.70;;;20.20;99.90;;;;;;4963636;28;20046;-50
2023/09/07 00:18:26;;;;;;;4.70;3.97;;;20.10;99.90;;;;;;4967790;28;20117;-49
2023/09/07 00:20:52;;;;;;;7.22;4.00;;;20.10;99.90;;;;;;4964930;28;20125;-48
2023/09/07 00:23:19;;;;;;;4.68;3.97;;;20.10;99.90;;;;;;4965002;28;20624;-50
2023/09/07 00:25:45;;;;;;;6.95;4.40;;;20.00;99.90;;;;;;4964395;28;20051;-50
2023/09/07 00:28:11;;;;;;;8.93;3.88;;;19.90;99.90;;;;;;4967834;28;20077;-48
2023/09/07 00:30:36;;;;;;;5.50;4.15;;;20.00;99.90;;;;;;4983435;28;20042;-49
2023/09/07 00:33:02;;;;;;;6.03;4.53;;;20.00;99.90;;;;;;4983403;28;20065;-49
2023/09/07 00:35:28;;;;;;;5.72;4.22;;;19.90;99.90;;;;;;4983667;28;20050;-52
2023/09/07 00:37:54;;;;;;;6.25;4.90;;;19.90;99.90;;;;;;4986897;28;20046;-51
2023/09/07 00:40:20;;;;;;;5.82;4.45;;;19.90;99.90;;;;;;4987892;28;20049;-51
2023/09/07 00:42:46;;;;;;;5.70;4.78;;;20.00;99.90;;;;;;4985770;28;20706;-49
2023/09/07 00:45:12;;;;;;;8.20;5.05;;;19.80;99.90;;;;;;4986703;28;20042;-51
2023/09/07 00:47:38;;;;;;;6.22;4.70;;;19.80;99.90;;;;;;4985610;28;20046;-49
2023/09/07 00:50:07;;;;;;;6.82;4.70;;;19.80;99.90;;;;;;4986380;28;20554;-50
2023/09/07 00:52:34;;;;;;;7.78;4.75;;;19.80;99.90;;;;;;4987933;28;20058;-48
2023/09/07 00:55:03;;;;;;;10.20;5.00;;;19.70;99.90;;;;;;4985069;28;20057;-50
2023/09/07 00:57:29;;;;;;;5.38;4.88;;;19.70;99.90;;;;;;4976266;28;20038;-49
2023/09/07 00:59:55;;;;;;;6.97;5.32;;;19.70;99.90;;;;;;4966752;28;20109;-50
2023/09/07 01:02:21;;;;;;;6.45;4.80;;;19.70;99.90;;;;;;4968242;28;20046;-51
2023/09/07 01:04:46;;;;;;;6.05;5.28;;;19.60;99.90;;;;;;4966388;28;20046;-51
2023/09/07 01:07:18;;;;;;;5.78;4.93;;;19.60;99.90;;;;;;4967125;28;20069;-47
2023/09/07 01:09:46;;;;;;;7.78;5.50;;;19.60;99.90;;;;;;4968071;28;20065;-48
2023/09/07 01:12:16;;;;;;;6.03;4.72;;;19.60;99.90;;;;;;5045142;23;20352;-50
2023/09/07 01:14:42;;;;;;;7.40;5.35;;;19.60;99.90;;;;;;4984895;28;20039;-48
2023/09/07 01:17:09;;;;;;;6.53;5.18;;;19.60;99.90;;;;;;4989713;28;20046;-48
2023/09/07 01:19:34;;;;;;;7.22;5.07;;;19.50;99.90;;;;;;4986015;28;20034;-48
2023/09/07 01:22:01;;;;;;;6.03;5.43;;;19.50;99.90;;;;;;4987339;28;20543;-49
2023/09/07 01:24:32;;;;;;;6.63;5.18;;;19.50;99.90;;;;;;4986720;28;20046;-50
2023/09/07 01:26:58;;;;;;;7.55;5.03;;;19.60;99.90;;;;;;4987225;28;20045;-49
2023/09/07 01:29:26;;;;;;;5.70;5.10;;;19.50;99.90;;;;;;4987200;28;20053;-50
2023/09/07 01:31:52;;;;;;;11.63;5.53;;;19.50;99.90;;;;;;4992815;28;20385;-48
2023/09/07 01:34:18;;;;;;;7.15;5.30;;;19.50;99.90;;;;;;4989068;28;20100;-48
2023/09/07 01:36:44;;;;;;;6.00;5.00;;;19.50;99.90;;;;;;4986917;28;20054;-48
2023/09/07 01:39:09;;;;;;;5.25;4.70;;;19.50;99.90;;;;;;4985906;28;20546;-52
2023/09/07 01:41:35;;;;;;;6.60;5.30;;;19.50;99.90;;;;;;4986924;28;20125;-48
2023/09/07 01:44:00;;;;;;;7.93;4.57;;;19.50;99.90;;;;;;4986344;28;20381;-49
2023/09/07 01:46:26;;;;;;;6.40;5.35;;;19.40;99.90;;;;;;4986554;28;20049;-49
2023/09/07 01:48:52;;;;;;;8.63;5.03;;;19.40;99.90;;;;;;4985027;28;20058;-50
2023/09/07 01:51:17;;;;;;;7.10;5.03;;;19.30;99.90;;;;;;4986626;28;20038;-50
2023/09/07 01:53:43;;;;;;;9.00;5.38;;;19.40;99.90;;;;;;4986749;28;20076;-48
2023/09/07 01:56:09;;;;;;;8.02;5.35;;;19.40;99.90;;;;;;4980800;28;20084;-48
2023/09/07 01:58:36;;;;;;;7.28;5.07;;;19.30;99.90;;;;;;4970024;28;20043;-50
2023/09/07 02:01:02;;;;;;;6.80;5.25;;;19.30;99.90;;;;;;4966895;28;20047;-48
2023/09/07 02:03:28;;;;;;;8.57;5.07;;;19.40;99.90;;;;;;4966885;28;20109;-48
2023/09/07 02:05:54;;;;;;;6.82;5.18;;;19.40;99.90;;;;;;4970821;28;20049;-48
2023/09/07 02:08:20;;;;;;;7.50;5.30;;;19.20;99.90;;;;;;4985388;28;20129;-50
2023/09/07 02:10:45;;;;;;;7.25;5.03;;;19.20;99.90;;;;;;4985976;28;20054;-50
2023/09/07 02:13:11;;;;;;;8.80;5.43;;;19.20;99.90;;;;;;4986485;28;20117;-48
2023/09/07 02:15:38;;;;;;;8.35;5.55;;;19.20;99.90;;;;;;4985274;28;20046;-49
2023/09/07 02:18:05;;;;;;;6.20;4.90;;;19.20;99.90;;;;;;5001760;28;20052;-48
2023/09/07 02:20:32;;;;;;;7.53;5.22;;;19.10;99.90;;;;;;5005464;28;20042;-50
2023/09/07 02:22:57;;;;;;;8.55;5.50;;;19.00;99.90;;;;;;5004965;28;20042;-50
2023/09/07 02:25:24;;;;;;;7.22;5.47;;;19.00;99.90;;;;;;5005562;28;20125;-48
2023/09/07 02:27:49;;;;;;;8.77;5.18;;;19.00;99.90;;;;;;5005469;28;20049;-49
2023/09/07 02:30:15;;;;;;;6.13;5.50;;;19.00;99.90;;;;;;5003353;28;20524;-49
2023/09/07 02:32:42;;;;;;;7.13;5.72;;;18.90;99.90;;;;;;5004815;28;20050;-48
2023/09/07 02:35:08;;;;;;;6.93;5.80;;;19.00;99.90;;;;;;5005072;28;20416;-48
2023/09/07 02:37:37;;;;;;;7.63;4.95;;;19.00;99.90;;;;;;5005177;28;20046;-48
2023/09/07 02:40:12;;;;;;;7.95;5.65;;;19.00;99.90;;;;;;5004676;28;20042;-49
2023/09/07 02:42:37;;;;;;;6.70;5.28;;;18.90;99.90;;;;;;4995121;28;20078;-49
2023/09/07 02:45:04;;;;;;;10.63;5.32;;;18.90;99.90;;;;;;4985209;28;20469;-49
2023/09/07 02:47:29;;;;;;;8.02;5.43;;;18.90;99.90;;;;;;4985224;28;20081;-48
2023/09/07 02:49:55;;;;;;;9.95;5.43;;;18.90;99.90;;;;;;4985432;28;20080;-48
2023/09/07 02:52:20;;;;;;;9.07;5.97;;;18.80;99.90;;;;;;4983888;28;20054;-49
2023/09/07 02:54:46;;;;;;;7.35;5.72;;;18.80;99.90;;;;;;4982923;28;20050;-50
2023/09/07 02:57:12;;;;;;;7.32;5.88;;;18.80;99.90;;;;;;4973261;28;20042;-48
2023/09/07 02:59:38;;;;;;;11.75;5.97;;;18.70;99.90;;;;;;4964817;28;20043;-50
2023/09/07 03:02:03;;;;;;;7.93;6.20;;;18.80;99.90;;;;;;4965825;28;20050;-51
2023/09/07 03:04:29;;;;;;;7.57;6.03;;;18.80;99.90;;;;;;4965391;28;20046;-48
2023/09/07 03:06:54;;;;;;;6.70;6.00;;;18.70;99.90;;;;;;4966392;28;20093;-49
2023/09/07 03:09:20;;;;;;;9.25;6.68;;;18.70;99.90;;;;;;4966533;28;20070;-49
2023/09/07 03:11:46;;;;;;;9.52;6.50;;;18.50;99.90;;;;;;4966337;28;20392;-51
2023/09/07 03:14:11;;;;;;;7.93;6.60;;;18.70;99.90;;;;;;4963622;28;20078;-51
2023/09/07 03:16:38;;;;;;;7.63;6.22;;;18.60;99.90;;;;;;4964795;28;20075;-49
2023/09/07 03:19:04;;;;;;;8.38;6.40;;;18.60;99.90;;;;;;4964491;28;20677;-49
2023/09/07 03:21:29;;;;;;;7.47;6.13;;;18.60;99.90;;;;;;4965477;28;20157;-47
2023/09/07 03:23:57;;;;;;;7.35;6.45;;;18.60;99.90;;;;;;4964735;28;20468;-47
2023/09/07 03:26:22;;;;;;;9.10;6.13;;;18.60;99.90;;;;;;4993603;28;20054;-48
2023/09/07 03:28:48;;;;;;;10.15;6.55;;;18.60;99.90;;;;;;5003370;28;20117;-49
2023/09/07 03:31:14;;;;;;;7.75;6.57;;;18.60;99.90;;;;;;5003250;28;20614;-47
2023/09/07 03:33:39;;;;;;;9.20;6.50;;;18.60;99.90;;;;;;5003070;28;20056;-49
2023/09/07 03:36:05;;;;;;;8.52;6.65;;;18.60;99.90;;;;;;5003427;28;20041;-47
2023/09/07 03:38:30;;;;;;;8.38;6.63;;;18.60;99.90;;;;;;5003215;28;20042;-48
2023/09/07 03:40:56;;;;;;;8.48;6.90;;;18.60;99.90;;;;;;5002929;28;20052;-48
2023/09/07 03:43:22;;;;;;;10.07;7.00;;;18.50;99.90;;;;;;5003773;28;20255;-47
2023/09/07 03:45:48;;;;;;;9.18;6.93;;;18.50;99.90;;;;;;5004669;28;20404;-48
2023/09/07 03:48:13;;;;;;;9.82;7.20;;;18.50;99.90;;;;;;5003428;28;20042;-48
2023/09/07 03:50:39;;;;;;;10.55;6.90;;;18.50;99.90;;;;;;5002478;28;20487;-50
2023/09/07 03:53:05;;;;;;;9.38;7.18;;;18.50;99.90;;;;;;5003636;28;20038;-49
2023/09/07 03:55:43;;;;;;;9.05;7.43;;;18.50;99.90;;;;;;4991019;28;20598;-48
2023/09/07 03:58:10;;;;;;;8.90;7.75;;;18.50;99.90;;;;;;4977098;28;20275;-47
2023/09/07 04:00:40;;;;;;;10.32;8.10;;;18.40;99.90;;;;;;4985113;28;20057;-48
2023/09/07 04:03:06;;;;;;;11.07;8.23;;;18.50;99.90;;;;;;4984443;28;20479;-49
2023/09/07 04:05:31;;;;;;;9.40;8.20;;;18.50;99.90;;;;;;4984234;28;20035;-47
2023/09/07 04:07:57;;;;;;;10.07;8.38;;;18.40;99.90;;;;;;4984705;28;20653;-48
2023/09/07 04:10:23;;;;;;;11.13;8.30;;;18.40;99.90;;;;;;4982932;28;20042;-48
2023/09/07 04:12:48;;;;;;;10.13;7.60;;;18.40;99.90;;;;;;4985919;28;20046;-48
2023/09/07 04:15:14;;;;;;;9.82;8.20;;;18.40;99.90;;;;;;4987769;28;20042;-48
2023/09/07 04:17:40;;;;;;;8.35;7.53;;;18.30;99.90;;;;;;4989472;28;20085;-47
2023/09/07 04:20:08;;;;;;;10.70;8.27;;;18.30;99.90;;;;;;4989077;28;20108;-48
2023/09/07 04:22:33;;;;;;;9.80;7.88;;;18.30;99.90;;;;;;4988520;28;20086;-48
2023/09/07 04:24:59;;;;;;;8.63;7.68;;;18.20;99.90;;;;;;4988469;28;20080;-48
2023/09/07 04:27:25;;;;;;;8.88;7.97;;;18.20;99.90;;;;;;4987655;28;20060;-49
2023/09/07 04:29:51;;;;;;;9.65;7.45;;;18.20;99.90;;;;;;4986862;28;20440;-47
2023/09/07 04:32:16;;;;;;;9.50;7.78;;;18.20;99.90;;;;;;4988576;28;20042;-47
2023/09/07 04:34:42;;;;;;;13.48;8.32;;;18.20;99.90;;;;;;4987719;28;20046;-48
2023/09/07 04:37:08;;;;;;;9.95;7.60;;;18.10;99.90;;;;;;4986510;28;20282;-50
2023/09/07 04:39:33;;;;;;;11.88;7.93;;;18.10;99.90;;;;;;4987393;28;20401;-48
2023/09/07 04:41:59;;;;;;;10.85;7.82;;;18.00;99.90;;;;;;4987690;28;20137;-48
2023/09/07 04:44:27;;;;;;;9.52;8.02;;;18.00;99.90;;;;;;4987455;28;20070;-49
2023/09/07 04:46:55;;;;;;;14.10;8.23;;;17.90;99.90;;;;;;4987628;28;20121;-51
2023/09/07 04:49:21;;;;;;;12.30;8.00;;;17.90;99.90;;;;;;4996326;28;20057;-48
2023/09/07 04:51:46;;;;;;;9.95;7.82;;;17.90;99.90;;;;;;5007245;28;20056;-48
2023/09/07 04:54:13;;;;;;;9.27;8.07;;;17.90;99.90;;;;;;5006150;28;20053;-47
2023/09/07 04:56:38;;;;;;;10.18;8.18;;;17.90;99.90;;;;;;4982738;28;20543;-49
2023/09/07 04:59:04;;;;;;;13.00;8.93;;;17.90;99.90;;;;;;4967658;28;20138;-49
2023/09/07 05:01:31;;;;;;;10.15;8.18;;;17.80;99.90;;;;;;4968287;28;20095;-51
2023/09/07 05:03:57;;;;;;;12.00;8.38;;;17.80;99.90;;;;;;4967087;28;20499;-47
2023/09/07 05:06:22;;;;;;;9.70;7.90;;;17.80;99.90;;;;;;4968288;28;20070;-47
2023/09/07 05:08:48;;;;;;;11.05;8.63;;;17.80;99.90;;;;;;4967775;28;20505;-49
2023/09/07 05:11:14;;;;;;;8.70;7.80;;;17.80;99.90;;;;;;4968345;28;20081;-47
2023/09/07 05:13:39;;;;;;;10.38;7.70;;;17.80;99.90;;;;;;4966080;28;20094;-47
2023/09/07 05:16:05;;;;;;;10.20;8.55;;;17.80;99.90;;;;;;4968681;28;20043;-48
2023/09/07 05:18:31;;;;;;;11.15;8.10;;;17.80;99.90;;;;;;4967190;28;20090;-50
2023/09/07 05:20:57;;;;;;;9.55;7.68;;;17.80;99.90;;;;;;4968187;28;20058;-47
2023/09/07 05:23:24;;;;;;;9.60;8.60;;;17.80;99.90;;;;;;4967182;28;20046;-47
2023/09/07 05:25:52;;;;;;;13.60;8.32;;;17.80;99.90;;;;;;4967733;28;20043;-47
2023/09/07 05:28:18;;;;;;;13.23;8.20;;;17.70;99.90;;;;;;4966651;28;20097;-47
2023/09/07 05:30:44;;;;;;;11.45;7.85;;;17.70;99.90;;;;;;4966874;28;20089;-49
2023/09/07 05:33:11;;;;;;;10.35;8.15;;;17.70;99.90;;;;;;4967846;28;20046;-48
2023/09/07 05:35:37;;;;;;;11.50;8.43;;;17.80;99.90;;;;;;4968376;28;20046;-48
2023/09/07 05:38:04;;;;;;;9.43;8.20;;;17.80;99.90;;;;;;4967875;28;20050;-50
2023/09/07 05:40:30;;;;;;;10.02;8.52;;;17.80;99.90;;;;;;4966778;28;20046;-48
2023/09/07 05:42:55;;;;;;;10.02;7.93;;;17.80;99.90;;;;;;4967070;28;20129;-48
2023/09/07 05:45:21;;;;;;;12.02;8.90;;;17.80;99.90;;;;;;4967513;28;20043;-47
2023/09/07 05:47:46;;;;;;;9.13;7.82;;;17.90;99.90;;;;;;4966793;28;20043;-47
2023/09/07 05:50:12;;;;;;;9.98;7.75;;;18.10;99.90;;;;;;4967241;28;20046;-47
2023/09/07 05:52:38;;;;;;;13.68;8.55;;;18.20;99.90;;;;;;4967493;28;20430;-48
2023/09/07 05:55:04;;;;;;;9.77;8.30;;;18.20;99.90;;;;;;4969778;28;20223;-50
2023/09/07 05:57:29;;;;;;;10.35;7.82;;;18.20;99.90;;;;;;4975033;28;20375;-48
2023/09/07 05:59:55;;;;;;;8.85;7.95;;;18.20;99.90;;;;;;4966507;28;20051;-48
2023/09/07 06:02:20;;;;;;;9.57;7.70;;;18.20;99.90;;;;;;4991950;28;20061;-48
2023/09/07 06:04:46;;;;;;;8.68;7.57;;;18.30;99.90;;;;;;4985845;28;20046;-50
2023/09/07 06:07:12;;;;;;;11.45;8.30;;;18.40;99.90;;;;;;4986721;28;20177;-46
2023/09/07 06:09:37;;;;;;;9.35;8.35;;;18.60;99.90;;;;;;4986570;28;20042;-48
2023/09/07 06:12:03;;;;;;;10.15;8.27;;;18.80;99.90;;;;;;4985865;28;20125;-47
2023/09/07 06:14:29;;;;;;;9.80;7.70;;;19.10;99.90;;;;;;4985309;28;20440;-47
2023/09/07 06:16:54;;;;;;;9.77;7.90;;;19.50;99.90;;;;;;4986549;28;20042;-46
2023/09/07 06:19:20;;;;;;;9.85;7.68;;;19.50;99.90;;;;;;4986177;28;20053;-47
2023/09/07 06:21:46;;;;;;;8.73;7.55;;;19.90;99.90;;;;;;4989089;28;20496;-48
2023/09/07 06:24:11;;;;;;;10.68;8.45;;;20.30;99.90;;;;;;4996665;28;20041;-48
2023/09/07 06:26:37;;;;;;;9.23;8.15;;;20.30;99.90;;;;;;4992078;28;20492;-48
2023/09/07 06:29:03;;;;;;;10.48;7.63;;;20.20;99.90;;;;;;4983696;28;20128;-49
2023/09/07 06:31:28;;;;;;;9.20;8.20;;;20.20;99.90;;;;;;4984843;28;20102;-47
2023/09/07 06:33:54;;;;;;;11.90;7.40;;;20.40;99.90;;;;;;4986692;28;20400;-47
2023/09/07 06:36:20;;;;;;;12.68;7.68;;;20.90;99.90;;;;;;4998481;28;20043;-47
2023/09/07 06:38:45;;;;;;;15.80;7.57;;;21.60;99.90;;;;;;4989120;28;20151;-47
2023/09/07 06:41:12;;;;;;;12.27;7.57;;;22.30;99.90;;;;;;4984064;28;20485;-48
2023/09/07 06:43:37;;;;;;;8.38;7.03;;;22.90;99.90;;;;;;4984788;28;20049;-48
2023/09/07 06:46:07;;;;;;;11.93;7.68;;;23.40;99.90;;;;;;4985484;28;20050;-50
2023/09/07 06:48:33;;;;;;;10.00;7.65;;;23.80;99.90;;;;;;4984383;28;20049;-50
2023/09/07 06:51:03;;;;;;;9.95;6.88;;;24.10;99.50;;;;;;4985456;28;20108;-48
2023/09/07 06:53:29;;;;;;;9.27;7.10;;;24.40;98.70;;;;;;4984586;28;20050;-47
2023/09/07 06:56:03;;;;;;;8.55;6.90;;;24.70;98.50;;;;;;4976826;28;20435;-48
2023/09/07 06:58:29;;;;;;;10.93;6.82;;;25.00;98.10;;;;;;4970228;28;20043;-48
2023/09/07 07:00:58;;;;;;;9.30;7.38;;;25.20;97.50;;;;;;4965506;28;20051;-49
2023/09/07 07:03:27;;;;;;;10.65;7.18;;;25.30;97.20;;;;;;4965502;28;20665;-47
2023/09/07 07:05:52;;;;;;;9.15;7.13;;;25.40;97.10;;;;;;4965953;28;20093;-48
2023/09/07 07:08:18;;;;;;;8.52;7.20;;;25.50;96.90;;;;;;4965170;28;20109;-49
2023/09/07 07:10:44;;;;;;;8.20;7.40;;;25.50;96.80;;;;;;4965137;28;20070;-52
2023/09/07 07:13:09;;;;;;;13.57;7.03;;;25.60;96.70;;;;;;4963611;28;20082;-48
2023/09/07 07:15:35;;;;;;;7.45;6.60;;;25.60;96.80;;;;;;4965426;28;20055;-48
2023/09/07 07:18:05;;;;;;;9.57;6.90;;;25.70;96.60;;;;;;4965451;28;20047;-50
2023/09/07 07:20:31;;;;;;;8.52;7.22;;;25.90;96.60;;;;;;4963658;28;20035;-52
2023/09/07 07:22:56;;;;;;;9.55;6.95;;;26.00;96.30;;;;;;4965035;28;20388;-48
2023/09/07 07:25:22;;;;;;;8.55;7.00;;;26.20;96.20;;;;;;4964869;28;20042;-49
2023/09/07 07:27:48;;;;;;;8.93;8.02;;;26.30;96.20;;;;;;4964048;28;20053;-48
2023/09/07 07:30:13;;;;;;;10.57;7.78;;;26.30;95.60;;;;;;4963254;28;20070;-50
2023/09/07 07:32:39;;;;;;;14.02;7.72;;;26.20;95.50;;;;;;4964595;28;20433;-49
2023/09/07 07:35:05;;;;;;;10.35;7.60;;;26.10;95.60;;;;;;4964477;28;20050;-48
2023/09/07 07:37:30;;;;;;;10.02;7.15;;;26.10;95.60;;;;;;4964430;28;20043;-51
2023/09/07 07:39:56;;;;;;;10.48;7.38;;;26.00;95.70;;;;;;4964558;28;20074;-50
2023/09/07 07:42:21;;;;;;;8.77;7.88;;;26.10;95.70;;;;;;4965796;28;20409;-50
2023/09/07 07:44:47;;;;;;;9.10;7.38;;;26.20;95.40;;;;;;4964633;28;20121;-51
2023/09/07 07:47:13;;;;;;;8.93;8.02;;;26.20;95.30;;;;;;4964557;28;20552;-49
2023/09/07 07:49:38;;;;;;;12.50;8.10;;;26.20;95.10;;;;;;4964264;28;20122;-48
2023/09/07 07:52:04;;;;;;;10.13;8.10;;;26.20;95.20;;;;;;4964625;28;20061;-51
2023/09/07 07:54:30;;;;;;;15.85;8.20;;;25.90;95.40;;;;;;4964647;28;20049;-48
2023/09/07 07:56:56;;;;;;;10.80;7.88;;;25.50;95.90;;;;;;4974377;28;20042;-51
2023/09/07 07:59:21;;;;;;;10.73;8.18;;;24.90;96.60;;;;;;4963952;28;20045;-48
2023/09/07 08:01:47;;;;;;;10.95;7.57;;;24.40;97.60;;;;;;4969850;28;20476;-51
2023/09/07 08:04:13;;;;;;;10.18;8.75;;;24.00;98.30;;;;;;5003746;28;20404;-49
2023/09/07 08:06:38;;;;;;;11.68;7.90;;;23.70;98.60;;;;;;4998802;28;20046;-49
2023/09/07 08:09:05;;;;;;;8.75;7.57;;;23.50;99.00;;;;;;4998388;28;20270;-49
2023/09/07 08:11:30;;;;;;;13.65;8.13;;;23.30;99.50;;;;;;4988966;28;20137;-49
2023/09/07 08:13:56;;;;;;;10.05;8.00;;;23.30;99.90;;;;;;4988415;28;20073;-49
2023/09/07 08:16:22;;;;;;;9.57;7.72;;;23.30;99.90;;;;;;4988718;28;20400;-52
2023/09/07 08:18:47;;;;;;;9.55;7.47;;;23.20;99.80;;;;;;4984442;28;20042;-52
2023/09/07 08:21:14;;;;;;;9.88;7.53;;;23.20;99.90;;;;;;4984129;28;20403;-50
2023/09/07 08:23:40;;;;;;;9.93;7.70;;;23.30;99.90;;;;;;4994016;28;20419;-50
2023/09/07 08:26:05;;;;;;;12.32;8.27;;;23.30;99.90;;;;;;4984124;28;20050;-50
2023/09/07 08:28:31;;;;;;;10.93;7.32;;;23.40;99.80;;;;;;4983201;28;20756;-50
2023/09/07 08:30:59;;;;;;;8.45;7.10;;;23.40;99.90;;;;;;4992464;28;20052;-49
2023/09/07 08:33:28;;;;;;;9.57;7.78;;;23.40;99.70;;;;;;4985672;28;20085;-51
2023/09/07 08:35:55;;;;;;;10.40;7.55;;;23.40;99.80;;;;;;4984062;28;20501;-50
2023/09/07 08:38:27;;;;;;;10.32;7.10;;;23.50;99.70;;;;;;4983833;28;20125;-50
2023/09/07 08:40:55;;;;;;;8.48;7.07;;;23.60;99.60;;;;;;4984030;28;20046;-50
2023/09/07 08:43:21;;;;;;;9.60;6.70;;;23.70;99.80;;;;;;5001089;28;20077;-50
2023/09/07 08:45:52;;;;;;;9.40;7.63;;;23.80;99.60;;;;;;5002889;28;20144;-50
2023/09/07 08:48:20;;;;;;;9.27;7.20;;;23.90;99.40;;;;;;5003152;28;20038;-50
2023/09/07 08:50:49;;;;;;;7.90;6.43;;;24.00;99.40;;;;;;5003031;28;20088;-49
2023/09/07 08:53:19;;;;;;;7.65;6.45;;;24.10;98.90;;;;;;4986497;28;20137;-49
2023/09/07 08:55:45;;;;;;;9.18;5.72;;;24.40;98.60;;;;;;4985919;28;20068;-49
2023/09/07 08:58:11;;;;;;;7.03;6.07;;;24.80;97.60;;;;;;4988511;28;20468;-50
2023/09/07 09:00:37;;;;;;;6.05;5.32;;;25.50;96.70;;;;;;5005896;28;20721;-50
2023/09/07 09:03:04;;;;;;;9.60;6.03;;;26.10;95.30;;;;;;4989793;28;20042;-49
2023/09/07 09:05:30;;;;;;;7.82;5.50;;;26.60;95.10;;;;;;4998298;28;20098;-49
2023/09/07 09:08:04;;;;;;;6.95;5.50;;;27.00;94.70;;;;;;5007326;28;20065;-50
2023/09/07 09:10:30;;;;;;;8.10;5.32;;;27.30;94.70;;;;;;5006434;28;20107;-48
2023/09/07 09:12:56;;;;;;;7.88;5.15;;;27.70;94.20;;;;;;4987980;28;20061;-49
2023/09/07 09:15:22;;;;;;;11.10;5.70;;;28.00;94.10;;;;;;4987164;28;20057;-49
2023/09/07 09:17:48;;;;;;;6.82;5.97;;;28.10;94.10;;;;;;4986700;28;20074;-50
2023/09/07 09:20:22;;;;;;;9.15;6.03;;;28.20;93.40;;;;;;4986460;28;20128;-49
2023/09/07 09:22:49;;;;;;;;;;;28.20;93.00;;;;;;4986383;28;20055;-50
2023/09/07 09:25:15;;;;;;;10.93;6.10;;;28.10;93.20;;;;;;4986590;28;19926;-49
2023/09/07 09:27:41;;;;;;;7.55;5.90;;;28.10;93.20;;;;;;4985892;28;20042;-50
2023/09/07 09:30:07;;;;;;;9.80;5.68;;;28.10;93.30;;;;;;4987606;28;20197;-50
2023/09/07 09:32:33;;;;;;;10.40;5.88;;;28.10;93.20;;;;;;4987266;28;20835;-49
2023/09/07 09:35:02;;;;;;;8.00;6.03;;;28.30;92.80;;;;;;4985863;28;20081;-48
2023/09/07 09:37:28;;;;;;;7.57;5.68;;;28.50;92.80;;;;;;4986360;28;20062;-50
2023/09/07 09:39:56;;;;;;;7.60;5.95;;;28.60;92.50;;;;;;4986569;28;20054;-51
2023/09/07 09:42:23;;;;;;;5.85;5.15;;;28.50;92.50;;;;;;4999574;28;20046;-47
2023/09/07 09:44:50;;;;;;;6.55;5.10;;;28.60;92.10;;;;;;4986233;28;20492;-48
2023/09/07 09:47:17;;;;;;;7.53;5.30;;;28.60;92.40;;;;;;4986574;28;20057;-48
2023/09/07 09:49:43;;;;;;;14.63;5.10;;;28.60;92.40;;;;;;4986273;28;20042;-47
2023/09/07 09:52:09;;;;;;;6.15;4.90;;;28.70;92.20;;;;;;4985539;28;20378;-47
2023/09/07 09:54:36;;;;;;;5.97;4.93;;;28.80;92.10;;;;;;4985203;28;20051;-47
2023/09/07 09:57:01;;;;;;;10.20;5.35;;;28.90;91.80;;;;;;4976904;28;20629;-51
2023/09/07 09:59:27;;;;;;;5.60;4.32;;;28.90;91.30;;;;;;4964562;28;20133;-50
2023/09/07 10:01:54;;;;;;;7.25;4.88;;;28.80;91.80;;;;;;4971542;28;20075;-47
2023/09/07 10:04:22;;;;;;;7.65;4.60;;;28.80;91.80;;;;;;5001009;28;20507;-48
2023/09/07 10:06:55;;;;;;;9.35;5.13;;;28.80;91.90;;;;;;4991787;28;20111;-47
2023/09/07 10:09:21;;;;;;;8.60;4.70;;;29.00;91.90;;;;;;5004095;28;20139;-47
2023/09/07 10:11:53;;;;;;;6.43;5.25;;;29.20;91.90;;;;;;5006280;28;20105;-53
2023/09/07 10:14:19;;;;;;;7.35;4.95;;;29.50;90.70;;;;;;4998380;28;20150;-48
2023/09/07 10:16:53;;;;;;;11.27;4.65;;;29.40;90.60;;;;;;4993919;28;20042;-49
2023/09/07 10:19:20;;;;;;;8.73;5.22;;;29.40;90.70;;;;;;4988896;28;20050;-48
2023/09/07 10:21:46;;;;;;;8.13;5.13;;;29.50;90.40;;;;;;4985976;28;20049;-51
2023/09/07 10:24:23;;;;;;;12.07;4.20;;;29.60;90.70;;;;;;4985294;28;20045;-50
2023/09/07 10:27:00;;;;;;;5.47;4.43;;;29.90;91.20;;;;;;4986510;28;20050;-49
2023/09/07 10:29:26;;;;;;;7.88;4.28;;;30.10;90.70;;;;;;4984974;28;20050;-48
2023/09/07 10:31:52;;;;;;;5.90;4.40;;;30.10;90.00;;;;;;4983200;28;20116;-48
2023/09/07 10:34:19;;;;;;;6.15;4.38;;;30.10;89.70;;;;;;4986684;28;20479;-48
2023/09/07 10:36:45;;;;;;;7.15;4.45;;;30.10;89.80;;;;;;4986505;28;20085;-48
2023/09/07 10:39:12;;;;;;;8.45;4.72;;;30.20;88.50;;;;;;4985535;28;20053;-52
2023/09/07 10:41:45;;;;;;;5.90;4.63;;;30.10;89.10;;;;;;4985342;28;20054;-52
2023/09/07 10:44:12;;;;;;;6.95;4.75;;;30.20;88.60;;;;;;4984840;28;20046;-47
2023/09/07 10:46:39;;;;;;;5.82;4.68;;;30.10;88.10;;;;;;4984936;28;20046;-48
2023/09/07 10:49:08;;;;;;;8.27;4.78;;;30.00;88.90;;;;;;4985484;28;20057;-47
2023/09/07 10:51:46;;;;;;;9.07;4.68;;;30.10;90.10;;;;;;4985537;28;20050;-47
2023/09/07 10:54:21;;;;;;;6.95;4.43;;;30.10;89.90;;;;;;4985918;28;20042;-48
2023/09/07 10:56:47;;;;;;;6.65;4.68;;;30.10;90.00;;;;;;4977193;28;20209;-48
2023/09/07 10:59:17;;;;;;;8.32;4.65;;;30.20;90.00;;;;;;4964627;28;20465;-48
2023/09/07 11:01:46;;;;;;;6.22;4.43;;;30.30;89.50;;;;;;4965445;28;20055;-48
2023/09/07 11:04:11;;;;;;;9.60;4.63;;;30.30;89.30;;;;;;4966252;28;20058;-48
2023/09/07 11:06:39;;;;;;;8.40;4.80;;;30.30;89.50;;;;;;4965888;28;20139;-49
2023/09/07 11:09:08;;;;;;;6.68;4.72;;;30.50;89.40;;;;;;4964937;28;20031;-49
2023/09/07 11:11:35;;;;;;;6.38;4.70;;;30.70;89.50;;;;;;4965517;28;20118;-52
2023/09/07 11:14:05;;;;;;;6.35;4.55;;;30.80;88.60;;;;;;4964741;28;20082;-50
2023/09/07 11:16:33;;;;;;;7.38;4.80;;;30.90;88.70;;;;;;4965688;28;20593;-52
2023/09/07 11:19:06;;;;;;;11.48;4.90;;;30.90;88.70;;;;;;4965698;28;20035;-52
2023/09/07 11:21:34;;;;;;;9.23;4.85;;;30.70;88.70;;;;;;4965387;28;20050;-50
2023/09/07 11:24:00;;;;;;;7.70;4.88;;;30.60;88.70;;;;;;4965348;28;20181;-50
2023/09/07 11:26:26;;;;;;;8.55;4.68;;;30.50;88.60;;;;;;4965369;28;20461;-50
2023/09/07 11:28:51;;;;;;;6.30;4.50;;;30.60;89.10;;;;;;4964897;28;20553;-49
2023/09/07 11:31:21;;;;;;;7.40;4.65;;;30.70;89.30;;;;;;4974932;28;20039;-52
2023/09/07 11:33:48;;;;;;;7.53;4.90;;;30.90;88.00;;;;;;4995569;28;20492;-50
2023/09/07 11:36:14;;;;;;;5.35;4.78;;;30.90;88.10;;;;;;4994578;28;20436;-50
2023/09/07 11:38:43;;;;;;;7.13;4.72;;;31.10;86.20;;;;;;4992686;28;20045;-53
2023/09/07 11:41:09;;;;;;;7.15;4.72;;;31.00;86.70;;;;;;4990691;28;20054;-52
2023/09/07 11:43:34;;;;;;;7.10;4.47;;;30.90;86.20;;;;;;4987203;28;20120;-49
2023/09/07 11:46:01;;;;;;;6.85;4.78;;;30.80;86.50;;;;;;5004321;28;20084;-51
2023/09/07 11:48:28;;;;;;;5.10;4.47;;;30.70;86.10;;;;;;5003774;28;20077;-51
2023/09/07 11:50:54;;;;;;;6.13;4.50;;;30.70;86.90;;;;;;5004597;28;20504;-50
2023/09/07 11:53:19;;;;;;;6.10;4.45;;;30.70;85.80;;;;;;5004137;28;20068;-50
2023/09/07 11:55:45;;;;;;;7.65;4.72;;;30.70;87.40;;;;;;4987306;28;20587;-50
2023/09/07 11:58:10;;;;;;;10.95;4.88;;;30.80;86.80;;;;;;4995594;28;20435;-51
2023/09/07 12:00:36;;;;;;;5.75;4.53;;;30.90;84.50;;;;;;5004199;28;20088;-52
2023/09/07 12:03:02;;;;;;;7.30;4.78;;;30.90;85.00;;;;;;5003946;28;20054;-52
2023/09/07 12:05:28;;;;;;;7.75;4.22;;;30.90;85.40;;;;;;5003396;28;20049;-51
2023/09/07 12:07:54;;;;;;;7.57;4.38;;;30.80;85.80;;;;;;5004629;28;20053;-51
2023/09/07 12:10:20;;;;;;;6.80;3.97;;;30.90;85.80;;;;;;5001847;28;20120;-52
2023/09/07 12:12:45;;;;;;;9.57;4.55;;;30.80;86.20;;;;;;4988944;28;20065;-52
2023/09/07 12:15:11;;;;;;;5.07;3.97;;;30.90;86.20;;;;;;4988682;28;20049;-53
2023/09/07 12:17:37;;;;;;;9.18;4.57;;;31.10;85.70;;;;;;4993108;28;20468;-52
2023/09/07 12:20:04;;;;;;;7.40;4.47;;;31.20;85.60;;;;;;4994536;28;20541;-50
2023/09/07 12:22:30;;;;;;;5.95;3.95;;;31.40;85.60;;;;;;4992278;28;20093;-50
2023/09/07 12:24:56;;;;;;;8.57;4.70;;;31.40;85.10;;;;;;4990840;28;20042;-50
2023/09/07 12:27:22;;;;;;;5.90;4.45;;;31.40;83.50;;;;;;4983535;28;20046;-51
2023/09/07 12:29:48;;;;;;;7.35;4.10;;;31.30;82.80;;;;;;4984131;28;20558;-52
2023/09/07 12:32:14;;;;;;;5.90;4.00;;;31.10;82.60;;;;;;4983275;28;20096;-51
2023/09/07 12:34:40;;;;;;;5.95;4.20;;;31.10;83.60;;;;;;4987958;28;20038;-52
2023/09/07 12:37:06;;;;;;;5.20;4.38;;;31.00;83.80;;;;;;4986315;28;20108;-52
2023/09/07 12:39:32;;;;;;;6.32;4.32;;;31.00;83.70;;;;;;4986333;28;20124;-52
2023/09/07 12:41:58;;;;;;;5.50;4.30;;;30.90;84.30;;;;;;4987391;28;20047;-52